createdAt,value
2022-12-18T00:00:10.508Z,-1.90
2022-12-18T00:05:13.360Z,-1.90
2022-12-18T00:10:16.397Z,-1.90
2022-12-18T00:15:19.475Z,-1.90
2022-12-18T00:20:26.640Z,-1.80
2022-12-18T00:25:29.586Z,-1.80
2022-12-18T00:30:32.434Z,-1.80
2022-12-18T00:35:35.387Z,-1.80
2022-12-18T00:40:38.322Z,-1.90
2022-12-18T00:45:42.206Z,-1.80
2022-12-18T00:50:45.232Z,-1.90
2022-12-18T00:55:48.462Z,-2.00
2022-12-18T01:00:51.304Z,-2.00
2022-12-18T01:05:54.284Z,-2.10
2022-12-18T01:10:57.196Z,-2.10
2022-12-18T01:16:00.697Z,-2.10
2022-12-18T01:21:12.948Z,-2.10
2022-12-18T01:26:17.442Z,-2.00
2022-12-18T01:31:24.350Z,-2.00
2022-12-18T01:36:30.832Z,-1.90
2022-12-18T01:41:54.425Z,-1.90
2022-12-18T01:46:57.383Z,-1.90
2022-12-18T01:52:00.407Z,-1.90
2022-12-18T01:57:03.541Z,-2.00
2022-12-18T02:02:07.344Z,-2.00
2022-12-18T02:08:13.552Z,-2.10
2022-12-18T02:14:23.773Z,-2.20
2022-12-18T02:19:30.216Z,-2.30
2022-12-18T02:25:14.126Z,-2.40
2022-12-18T02:30:18.398Z,-2.40
2022-12-18T02:35:30.069Z,-2.50
2022-12-18T02:40:33.883Z,-2.60
2022-12-18T02:45:36.957Z,-2.70
2022-12-18T02:50:50.205Z,-2.70
2022-12-18T02:56:25.400Z,-2.70
2022-12-18T03:02:19.512Z,-2.80
2022-12-18T03:07:37.769Z,-2.80
2022-12-18T03:12:55.601Z,-2.90
2022-12-18T03:18:23.900Z,-3.00
2022-12-18T03:23:35.956Z,-3.00
2022-12-18T03:28:46.986Z,-3.10
2022-12-18T03:33:57.738Z,-3.20
2022-12-18T03:39:00.740Z,-3.30
2022-12-18T03:44:34.761Z,-3.30
2022-12-18T03:50:12.282Z,-3.40
2022-12-18T03:55:16.332Z,-3.50
2022-12-18T04:00:20.736Z,-3.60
2022-12-18T04:05:27.185Z,-3.60
2022-12-18T04:10:30.662Z,-3.70
2022-12-18T04:15:37.553Z,-3.70
2022-12-18T04:20:40.577Z,-3.80
2022-12-18T04:25:43.578Z,-3.80
2022-12-18T04:30:49.223Z,-3.90
2022-12-18T04:35:52.264Z,-3.90
2022-12-18T04:40:55.101Z,-3.90
2022-12-18T04:46:09.362Z,-3.90
2022-12-18T04:51:12.398Z,-3.90
2022-12-18T04:56:16.725Z,-3.90
2022-12-18T05:01:20.521Z,-3.90
2022-12-18T05:06:23.431Z,-3.90
2022-12-18T05:11:26.302Z,-3.90
2022-12-18T05:16:29.334Z,-3.90
2022-12-18T05:21:32.373Z,-3.90
2022-12-18T05:26:35.802Z,-4.00
2022-12-18T05:31:39.810Z,-4.00
2022-12-18T05:36:42.981Z,-4.10
2022-12-18T05:41:46.184Z,-4.10
2022-12-18T05:46:49.879Z,-4.10
2022-12-18T05:51:52.759Z,-4.20
2022-12-18T05:56:55.535Z,-4.20
2022-12-18T06:01:58.651Z,-4.20
2022-12-18T06:07:04.140Z,-4.20
2022-12-18T06:12:07.472Z,-4.20
2022-12-18T06:17:10.390Z,-4.20
2022-12-18T06:22:13.352Z,-4.20
2022-12-18T06:27:16.214Z,-4.30
2022-12-18T06:44:00.314Z,-4.30
2022-12-18T06:49:03.939Z,-4.10
2022-12-18T06:54:06.873Z,-4.10
2022-12-18T06:59:09.753Z,-4.00
2022-12-18T07:04:13.074Z,-4.00
2022-12-18T07:09:15.993Z,-3.90
2022-12-18T07:14:19.752Z,-3.80
2022-12-18T07:19:25.663Z,-3.80
2022-12-18T07:24:29.439Z,-3.80
2022-12-18T07:29:32.490Z,-3.70
2022-12-18T07:34:35.853Z,-3.60
2022-12-18T07:39:39.579Z,-3.40
2022-12-18T07:44:42.547Z,-3.00
2022-12-18T07:49:45.334Z,-2.60
2022-12-18T07:54:50.921Z,-2.10
2022-12-18T07:59:53.868Z,-1.60
2022-12-18T08:04:56.723Z,-1.20
2022-12-18T08:09:59.559Z,-0.80
2022-12-18T08:15:02.735Z,-0.40
2022-12-18T08:20:06.357Z,0.00
2022-12-18T08:25:10.202Z,0.40
2022-12-18T08:30:13.636Z,0.80
2022-12-18T08:35:18.811Z,1.20
2022-12-18T08:40:21.747Z,1.70
2022-12-18T08:45:25.807Z,2.10
2022-12-18T08:50:29.210Z,2.50
2022-12-18T08:55:32.271Z,2.50
2022-12-18T09:00:35.193Z,2.20
2022-12-18T09:05:38.079Z,1.70
2022-12-18T09:10:49.699Z,1.30
2022-12-18T09:15:55.432Z,1.00
2022-12-18T09:20:58.319Z,0.90
2022-12-18T09:26:01.438Z,0.70
2022-12-18T09:31:09.884Z,0.60
2022-12-18T09:36:17.694Z,0.40
2022-12-18T09:41:48.402Z,0.40
2022-12-18T09:47:20.058Z,0.30
2022-12-18T09:52:41.291Z,0.30
2022-12-18T09:57:53.379Z,0.30
2022-12-18T10:03:15.263Z,0.30
2022-12-18T10:09:21.669Z,0.30
2022-12-18T10:14:57.434Z,0.40
2022-12-18T10:20:17.104Z,0.40
2022-12-18T10:25:41.072Z,0.50
2022-12-18T10:30:44.657Z,0.60
2022-12-18T10:35:51.403Z,0.60
2022-12-18T10:40:58.566Z,0.70
2022-12-18T10:46:09.814Z,0.80
2022-12-18T10:51:31.657Z,0.90
2022-12-18T10:56:37.818Z,1.30
2022-12-18T11:01:58.836Z,1.60
2022-12-18T11:07:09.061Z,1.60
2022-12-18T11:12:11.881Z,1.60
2022-12-18T11:17:26.715Z,1.70
2022-12-18T11:22:36.349Z,1.70
2022-12-18T11:27:41.210Z,1.60
2022-12-18T11:33:02.248Z,1.70
2022-12-18T11:38:36.168Z,1.70
2022-12-18T11:43:47.319Z,1.80
2022-12-18T11:49:36.033Z,1.80
2022-12-18T11:54:39.719Z,1.90
2022-12-18T12:00:12.805Z,2.00
2022-12-18T12:05:49.846Z,2.00
2022-12-18T12:11:20.539Z,2.00
2022-12-18T12:16:33.775Z,2.10
2022-12-18T12:22:05.718Z,2.20
2022-12-18T12:28:05.844Z,2.20
2022-12-18T12:33:32.543Z,2.20
2022-12-18T12:38:52.264Z,2.10
2022-12-18T12:44:00.304Z,2.10
2022-12-18T12:49:11.030Z,2.10
2022-12-18T12:54:25.850Z,2.10
2022-12-18T13:00:04.178Z,2.10
2022-12-18T13:05:35.382Z,2.10
2022-12-18T13:10:43.189Z,2.10
2022-12-18T13:16:06.568Z,2.10
2022-12-18T13:21:28.076Z,2.00
2022-12-18T13:26:32.970Z,2.00
2022-12-18T13:31:42.201Z,2.00
2022-12-18T13:36:47.298Z,1.90
2022-12-18T13:42:32.394Z,1.90
2022-12-18T13:47:39.032Z,1.80
2022-12-18T13:52:44.645Z,1.80
2022-12-18T13:57:47.560Z,1.80
2022-12-18T14:02:51.987Z,1.70
2022-12-18T14:08:16.213Z,1.60
2022-12-18T14:13:34.978Z,1.50
2022-12-18T14:18:45.335Z,1.40
2022-12-18T14:23:48.461Z,1.30
2022-12-18T14:28:51.998Z,1.20
2022-12-18T14:33:55.527Z,1.10
2022-12-18T14:39:00.353Z,0.90
2022-12-18T14:44:09.427Z,0.70
2022-12-18T14:49:35.217Z,0.50
2022-12-18T14:54:39.333Z,0.40
2022-12-18T14:59:42.442Z,0.20
2022-12-18T15:04:46.023Z,0.10
2022-12-18T15:10:14.116Z,0.00
2022-12-18T15:15:38.325Z,-0.10
2022-12-18T15:20:50.294Z,-0.30
2022-12-18T15:26:11.381Z,-0.30
2022-12-18T15:31:14.372Z,-0.40
2022-12-18T15:36:21.337Z,-0.50
2022-12-18T15:41:32.868Z,-0.60
2022-12-18T15:46:37.848Z,-0.70
2022-12-18T15:51:41.668Z,-0.80
2022-12-18T15:57:02.885Z,-0.90
2022-12-18T16:02:18.127Z,-1.00
2022-12-18T16:07:24.877Z,-1.10
2022-12-18T16:12:28.628Z,-1.20
2022-12-18T16:17:32.013Z,-1.30
2022-12-18T16:22:34.827Z,-1.40
2022-12-18T16:27:37.712Z,-1.50
2022-12-18T16:32:40.585Z,-1.50
2022-12-18T16:37:44.298Z,-1.60
2022-12-18T16:42:47.721Z,-1.60
2022-12-18T16:47:50.536Z,-1.70
2022-12-18T16:52:53.436Z,-1.70
2022-12-18T16:57:57.413Z,-1.80
2022-12-18T17:03:00.452Z,-1.90
2022-12-18T17:08:03.982Z,-2.00
2022-12-18T17:13:06.864Z,-2.10
2022-12-18T17:18:09.840Z,-2.20
2022-12-18T17:23:12.676Z,-2.30
2022-12-18T17:28:15.564Z,-2.30
2022-12-18T17:33:18.781Z,-2.40
2022-12-18T17:38:21.674Z,-2.40
2022-12-18T17:43:24.565Z,-2.50
2022-12-18T17:48:27.424Z,-2.60
2022-12-18T17:53:31.411Z,-2.60
2022-12-18T17:58:37.826Z,-2.70
2022-12-18T18:03:42.489Z,-2.80
2022-12-18T18:08:45.837Z,-2.90
2022-12-18T18:14:04.656Z,-2.90
2022-12-18T18:19:12.386Z,-2.90
2022-12-18T18:24:20.170Z,-3.00
2022-12-18T18:29:26.911Z,-3.10
2022-12-18T18:34:33.045Z,-3.10
2022-12-18T18:39:36.581Z,-3.10
2022-12-18T18:44:41.369Z,-3.20
2022-12-18T18:49:47.433Z,-3.20
2022-12-18T18:55:11.469Z,-3.20
2022-12-18T19:00:16.488Z,-3.20
2022-12-18T19:05:19.370Z,-3.20
2022-12-18T19:10:22.208Z,-3.30
2022-12-18T19:15:25.178Z,-3.30
2022-12-18T19:20:28.551Z,-3.30
2022-12-18T19:25:40.697Z,-3.40
2022-12-18T19:30:45.928Z,-3.40
2022-12-18T19:35:49.365Z,-3.50
2022-12-18T19:40:52.567Z,-3.50
2022-12-18T19:45:56.347Z,-3.50
2022-12-18T19:50:59.286Z,-3.60
2022-12-18T19:56:11.771Z,-3.60
2022-12-18T20:01:16.918Z,-3.70
2022-12-18T20:06:36.298Z,-3.70
2022-12-18T20:11:41.993Z,-3.80
2022-12-18T20:16:45.198Z,-3.90
2022-12-18T20:21:48.420Z,-3.90
2022-12-18T20:26:51.204Z,-3.90
2022-12-18T20:31:54.269Z,-4.00
2022-12-18T20:36:57.133Z,-4.00
2022-12-18T20:42:00.871Z,-4.00
2022-12-18T20:47:05.747Z,-4.10
2022-12-18T20:52:11.840Z,-4.10
2022-12-18T20:57:15.247Z,-4.10
2022-12-18T21:02:21.286Z,-4.10
2022-12-18T21:07:24.408Z,-4.10
2022-12-18T21:12:42.737Z,-4.10
2022-12-18T21:17:53.914Z,-4.00
2022-12-18T21:22:57.721Z,-4.00
2022-12-18T21:28:07.175Z,-4.00
2022-12-18T21:33:10.992Z,-4.00
2022-12-18T21:38:14.295Z,-4.00
2022-12-18T21:43:35.383Z,-3.90
2022-12-18T21:48:43.350Z,-3.80
2022-12-18T21:53:46.276Z,-3.80
2022-12-18T21:58:56.800Z,-3.80
2022-12-18T22:04:00.353Z,-3.80
2022-12-18T22:09:04.532Z,-3.80
2022-12-18T22:14:07.879Z,-3.80
2022-12-18T22:19:12.524Z,-3.60
2022-12-18T22:24:22.282Z,-3.50
2022-12-18T22:29:44.684Z,-3.30
2022-12-18T22:34:47.559Z,-3.10
2022-12-18T22:39:50.460Z,-2.90
2022-12-18T22:44:53.409Z,-2.70
2022-12-18T22:49:56.317Z,-2.60
2022-12-18T22:54:59.207Z,-2.50
2022-12-18T23:00:02.731Z,-2.40
2022-12-18T23:05:06.866Z,-2.30
2022-12-18T23:10:10.070Z,-2.20
2022-12-18T23:15:12.905Z,-2.10
2022-12-18T23:20:17.651Z,-2.00
2022-12-18T23:25:20.576Z,-1.90
2022-12-18T23:30:23.940Z,-1.80
2022-12-18T23:35:26.880Z,-1.80
2022-12-18T23:40:30.209Z,-1.70
2022-12-18T23:45:38.665Z,-1.70
2022-12-18T23:50:41.500Z,-1.60
2022-12-18T23:55:45.579Z,-1.60
